Time;durP1;ratioP1;P1;durP2;ratioP2;P2;SDS_P1;SDS_P2;PMS_P1;PMS_P2;Temp;Humidity;BMP_temperature;BMP_pressure;BME280_temperature;BME280_humidity;BME280_pressure;Samples;Min_cycle;Max_cycle;Signal;HPM_P1;HPM_P2
2022/09/20 00:01:42;;;;;;;1.70;1.30;;;;;;;13.92;57.69;99201.81;25185;1313;3026248;-62
2022/09/20 00:04:11;;;;;;;3.00;1.00;;;;;;;13.91;57.67;99208.44;25104;1313;3026889;-62
2022/09/20 00:06:40;;;;;;;4.00;1.10;;;;;;;13.90;57.21;99207.48;25174;1316;3055125;-62
2022/09/20 00:09:09;;;;;;;2.50;1.20;;;;;;;13.89;57.14;99211.55;25156;1313;3026738;-63
2022/09/20 00:11:38;;;;;;;2.70;1.00;;;;;;;13.88;55.58;99214.13;25153;1311;3055707;-63
2022/09/20 00:14:08;;;;;;;2.50;1.20;;;;;;;13.91;54.85;99212.66;25172;1312;3026358;-62
2022/09/20 00:16:38;;;;;;;2.40;1.00;;;;;;;13.87;54.25;99203.86;25160;1313;3026188;-64
2022/09/20 00:19:08;;;;;;;2.80;1.10;;;;;;;13.84;53.57;99202.47;25174;1313;3027617;-63
2022/09/20 00:21:37;;;;;;;2.30;1.10;;;;;;;13.84;53.64;99196.82;25190;1313;3026639;-63
2022/09/20 00:24:06;;;;;;;2.40;1.20;;;;;;;13.84;53.24;99193.70;25184;1313;3026699;-62
2022/09/20 00:26:35;;;;;;;3.70;1.20;;;;;;;13.82;53.15;99192.77;25157;1313;3051641;-62
2022/09/20 00:29:04;;;;;;;3.30;1.30;;;;;;;13.82;53.13;99185.88;25171;1313;3026467;-62
2022/09/20 00:31:34;;;;;;;2.20;1.00;;;;;;;13.81;53.08;99179.44;25227;1313;3026943;-63
2022/09/20 00:36:51;;;;;;;3.40;1.10;;;;;;;13.76;53.16;99165.40;25158;1313;3052972;-63
2022/09/20 00:39:20;;;;;;;1.90;0.90;;;;;;;13.75;53.15;99162.18;25182;1313;3026675;-63
2022/09/20 00:41:49;;;;;;;4.50;1.20;;;;;;;13.72;53.41;99164.83;25149;1313;3026883;-64
2022/09/20 00:44:43;;;;;;;4.20;1.10;;;;;;;13.69;53.63;99164.20;25194;1313;3052428;-65
2022/09/20 00:47:23;;;;;;;5.60;1.20;;;;;;;13.68;53.39;99162.19;25184;1313;3053797;-65
2022/09/20 00:49:57;;;;;;;5.50;1.10;;;;;;;13.63;53.50;99159.03;25180;1313;3070158;-65
2022/09/20 00:52:26;;;;;;;3.00;1.30;;;;;;;13.59;53.83;99153.36;25195;1313;3026795;-62
2022/09/20 00:54:55;;;;;;;2.60;1.30;;;;;;;13.54;53.55;99146.51;25176;1313;3026125;-64
2022/09/20 00:57:23;;;;;;;2.80;1.10;;;;;;;13.54;53.79;99143.54;25075;1313;3067984;-63
2022/09/20 00:59:53;;;;;;;1.60;1.10;;;;;;;13.53;53.80;99139.95;25163;1314;3026703;-64
2022/09/20 01:02:26;;;;;;;2.60;1.20;;;;;;;13.51;53.87;99142.41;25169;1313;3051010;-63
2022/09/20 01:04:56;;;;;;;4.00;1.60;;;;;;;13.49;53.79;99143.94;25210;1313;3026161;-64
2022/09/20 01:07:25;;;;;;;2.00;1.30;;;;;;;13.45;54.21;99138.48;25182;1313;3026427;-64
2022/09/20 01:09:54;;;;;;;4.20;1.30;;;;;;;13.40;54.23;99137.96;25151;1313;3026269;-65
2022/09/20 01:12:26;;;;;;;2.80;1.30;;;;;;;13.39;54.23;99141.52;25101;1314;3071168;-62
2022/09/20 01:14:58;;;;;;;3.40;0.90;;;;;;;13.36;54.47;99143.31;25136;1313;3048528;-63
2022/09/20 01:17:28;;;;;;;3.50;1.40;;;;;;;13.37;54.41;99144.21;25091;1313;3026782;-63
2022/09/20 01:20:10;;;;;;;2.70;1.80;;;;;;;13.35;54.55;99144.50;25197;1313;3026391;-64
2022/09/20 01:22:48;;;;;;;5.10;1.40;;;;;;;13.30;54.87;99144.87;25120;1313;3058996;-62
2022/09/20 01:25:56;;;;;;;4.20;1.40;;;;;;;13.30;54.98;99137.62;25084;1313;3051899;-63
2022/09/20 01:28:25;;;;;;;2.80;1.20;;;;;;;13.28;55.10;99131.99;25100;1314;3053649;-62
2022/09/20 01:30:57;;;;;;;2.80;1.40;;;;;;;13.28;55.04;99127.40;25171;1313;3026252;-62
2022/09/20 01:33:36;;;;;;;2.40;1.30;;;;;;;13.32;54.79;99127.29;25154;1313;3026548;-63
2022/09/20 01:36:06;;;;;;;4.70;1.10;;;;;;;13.33;54.73;99125.64;25206;1313;3048651;-62
2022/09/20 01:39:15;;;;;;;2.30;1.30;;;;;;;13.31;55.10;99126.48;25154;1313;3026547;-64
2022/09/20 01:41:47;;;;;;;1.50;1.10;;;;;;;13.31;54.97;99118.55;25087;1313;3054891;-63
2022/09/20 01:44:19;;;;;;;2.70;1.30;;;;;;;13.34;54.82;99117.31;25159;1313;3026882;-63
2022/09/20 01:46:58;;;;;;;3.10;1.60;;;;;;;13.37;54.89;99118.86;25155;1313;3026413;-63
2022/09/20 01:49:51;;;;;;;3.70;1.70;;;;;;;13.36;55.23;99114.51;25231;1313;3055527;-65
2022/09/20 01:53:00;;;;;;;2.80;1.70;;;;;;;13.31;55.33;99118.23;25210;1314;3052737;-63
2022/09/20 01:55:47;;;;;;;3.10;2.00;;;;;;;13.26;55.89;99122.30;24389;1313;4315423;-64
2022/09/20 01:58:19;;;;;;;3.00;2.10;;;;;;;13.25;56.04;99119.20;25198;1313;3052523;-64
2022/09/20 02:01:03;;;;;;;4.10;2.20;;;;;;;13.23;56.55;99118.67;25198;1313;3026070;-65
2022/09/20 02:04:10;;;;;;;4.00;2.60;;;;;;;13.21;57.09;99119.16;25146;1314;3069353;-68
2022/09/20 02:07:02;;;;;;;3.60;2.20;;;;;;;13.21;57.27;99113.38;25166;1316;3047726;-64
2022/09/20 02:09:34;;;;;;;3.30;2.10;;;;;;;13.22;57.23;99111.31;25220;1315;3055148;-64
2022/09/20 02:12:07;;;;;;;6.60;2.70;;;;;;;13.25;57.08;99113.16;25232;1313;3029518;-64
2022/09/20 02:14:52;;;;;;;7.30;2.50;;;;;;;13.27;56.55;99109.00;25180;1313;3026447;-64
2022/09/20 02:17:54;;;;;;;2.90;1.80;;;;;;;13.29;56.72;99113.23;25198;1314;3050277;-63
2022/09/20 02:20:23;;;;;;;4.60;2.00;;;;;;;13.29;56.74;99119.42;25135;1312;3055312;-66
2022/09/20 02:23:00;;;;;;;3.40;2.00;;;;;;;13.31;56.18;99116.42;25172;1313;3026682;-65
2022/09/20 02:25:58;;;;;;;2.90;1.80;;;;;;;13.35;55.77;99114.59;25118;1314;3050008;-66
2022/09/20 02:28:35;;;;;;;3.40;2.10;;;;;;;13.40;55.54;99107.00;25185;1313;3052694;-64
2022/09/20 02:31:14;;;;;;;3.00;2.00;;;;;;;13.41;55.92;99101.08;25188;1315;3053749;-64
2022/09/20 02:34:04;;;;;;;3.90;1.80;;;;;;;13.39;56.20;99104.42;25191;1313;3069393;-64
2022/09/20 02:36:36;;;;;;;2.50;1.50;;;;;;;13.38;55.96;99107.54;25131;1313;3052458;-64
2022/09/20 02:39:16;;;;;;;3.30;1.70;;;;;;;13.38;56.06;99107.52;25180;1313;3026908;-63
2022/09/20 02:42:08;;;;;;;3.80;1.80;;;;;;;13.35;56.43;99104.88;25172;1313;3056074;-62
2022/09/20 02:44:46;;;;;;;3.50;2.30;;;;;;;13.36;56.58;99108.39;25119;1314;3056521;-64
2022/09/20 02:47:44;;;;;;;4.10;2.50;;;;;;;13.41;56.83;99110.39;25093;1316;3051478;-64
2022/09/20 02:50:44;;;;;;;6.00;2.10;;;;;;;13.42;57.33;99106.84;25149;1313;3055220;-64
2022/09/20 02:53:35;;;;;;;2.90;1.90;;;;;;;13.43;57.45;99112.38;25063;1313;3051146;-63
2022/09/20 02:56:31;;;;;;;3.40;1.90;;;;;;;13.43;57.60;99113.61;25178;1313;3069487;-63
2022/09/20 02:59:22;;;;;;;5.00;1.40;;;;;;;13.41;58.61;99114.66;25163;1313;3049251;-63
2022/09/20 03:01:55;;;;;;;3.60;2.10;;;;;;;13.39;58.48;99110.39;25178;1313;3055186;-62
2022/09/20 03:04:32;;;;;;;3.90;2.20;;;;;;;13.37;58.13;99108.09;25163;1316;3053656;-63
2022/09/20 03:07:51;;;;;;;5.00;2.30;;;;;;;13.34;57.63;99106.89;25156;1313;3055679;-63
2022/09/20 03:10:20;;;;;;;4.40;1.90;;;;;;;13.34;56.90;99108.29;25007;1322;3049653;-63
2022/09/20 03:13:17;;;;;;;6.70;2.00;;;;;;;13.32;57.04;99109.58;24916;1323;3026123;-63
2022/09/20 03:16:06;;;;;;;4.10;2.00;;;;;;;13.27;56.85;99109.56;25088;1313;3052524;-61
2022/09/20 03:18:48;;;;;;;2.60;1.90;;;;;;;13.27;56.49;99107.94;25105;1317;3071060;-65
2022/09/20 03:21:23;;;;;;;3.00;2.00;;;;;;;13.29;56.57;99109.58;25134;1313;3049966;-63
2022/09/20 03:24:18;;;;;;;3.80;1.80;;;;;;;13.30;56.41;99107.80;25155;1316;3054300;-64
2022/09/20 03:27:17;;;;;;;4.10;2.00;;;;;;;13.32;56.17;99112.67;25102;1313;3055220;-64
2022/09/20 03:29:54;;;;;;;6.20;2.70;;;;;;;13.34;55.76;99111.67;25077;1316;3056807;-61
2022/09/20 03:32:42;;;;;;;5.30;2.50;;;;;;;13.34;56.38;99110.30;25078;1313;3052958;-65
2022/09/20 03:35:48;;;;;;;4.40;2.20;;;;;;;13.34;56.60;99110.05;25090;1313;3053151;-63
2022/09/20 03:39:03;;;;;;;3.20;1.70;;;;;;;13.31;57.03;99108.05;25058;1313;3055318;-64
2022/09/20 03:41:41;;;;;;;2.30;1.40;;;;;;;13.30;57.57;99113.23;25095;1316;3071311;-63
2022/09/20 03:44:41;;;;;;;6.00;1.80;;;;;;;13.29;58.11;99116.63;25164;1316;3051692;-66
2022/09/20 03:47:42;;;;;;;4.20;1.70;;;;;;;13.27;57.92;99123.39;25100;1316;3053049;-66
2022/09/20 03:50:30;;;;;;;3.10;1.80;;;;;;;13.24;57.73;99125.45;25126;1313;3055061;-63
2022/09/20 03:53:05;;;;;;;4.60;1.70;;;;;;;13.22;57.79;99120.45;25156;1317;3059566;-65
2022/09/20 03:55:47;;;;;;;4.30;1.60;;;;;;;13.21;57.41;99115.98;25123;1313;3050187;-62
2022/09/20 03:58:47;;;;;;;4.00;1.80;;;;;;;13.28;57.23;99114.54;25155;1313;3054784;-63
2022/09/20 04:01:28;;;;;;;3.50;1.90;;;;;;;13.30;57.61;99119.52;25153;1313;3051513;-65
2022/09/20 04:04:42;;;;;;;5.30;2.10;;;;;;;13.28;58.40;99119.52;25151;1313;3068960;-63
2022/09/20 04:07:22;;;;;;;3.30;1.70;;;;;;;13.26;58.13;99120.70;25050;1313;3051444;-64
2022/09/20 04:10:06;;;;;;;3.20;1.80;;;;;;;13.33;57.62;99118.80;25094;1316;3052651;-64
2022/09/20 04:13:10;;;;;;;4.00;1.80;;;;;;;13.35;58.11;99116.35;25167;1313;3054994;-64
2022/09/20 04:16:01;;;;;;;6.90;2.00;;;;;;;13.31;58.46;99117.34;25145;1313;3057230;-63
2022/09/20 04:18:55;;;;;;;3.90;1.80;;;;;;;13.27;58.60;99118.89;25131;1312;3052531;-62
2022/09/20 04:21:42;;;;;;;3.10;1.70;;;;;;;13.25;58.90;99119.75;25131;1316;3052769;-64
2022/09/20 04:24:27;;;;;;;1.90;1.40;;;;;;;13.18;59.49;99125.69;25063;1315;3053608;-63
2022/09/20 04:27:03;;;;;;;4.90;1.90;;;;;;;13.13;59.57;99125.59;25124;1316;3069038;-63
2022/09/20 04:30:04;;;;;;;3.10;1.00;;;;;;;13.10;59.90;99131.95;25194;1316;3049444;-65
2022/09/20 04:32:48;;;;;;;2.40;1.10;;;;;;;13.07;60.62;99133.76;24998;1318;3052610;-63
2022/09/20 04:38:16;;;;;;;3.50;1.40;;;;;;;12.97;63.40;99137.53;25129;1313;3057353;-63
2022/09/20 04:41:04;;;;;;;3.10;1.40;;;;;;;12.93;65.17;99144.64;25078;1313;3026644;-62
2022/09/20 04:43:36;;;;;;;5.10;2.00;;;;;;;12.86;66.97;99143.04;25089;1313;3054574;-65
2022/09/20 04:46:08;;;;;;;2.20;1.60;;;;;;;12.78;68.19;99140.88;25117;1313;3026692;-68
2022/09/20 04:48:43;;;;;;;2.80;1.80;;;;;;;12.65;70.05;99149.22;25061;1316;3026515;-65
2022/09/20 04:51:21;;;;;;;6.90;2.10;;;;;;;12.59;69.67;99148.60;25120;1316;3049663;-63
2022/09/20 04:53:52;;;;;;;4.20;1.30;;;;;;;12.51;70.48;99150.72;25157;1313;3055284;-63
2022/09/20 04:56:48;;;;;;;4.00;1.40;;;;;;;13.12;69.33;99146.72;25077;1313;3026700;-64
2022/09/20 04:59:31;;;;;;;2.90;2.10;;;;;;;13.72;67.57;99142.17;25154;1313;3059158;-63
2022/09/20 05:02:45;;;;;;;6.70;2.00;;;;;;;13.77;67.32;99135.58;25104;1313;3052338;-63
2022/09/20 05:05:36;;;;;;;8.70;3.70;;;;;;;13.62;68.03;99147.84;25150;1316;3056109;-63
2022/09/20 05:08:27;;;;;;;8.40;6.30;;;;;;;13.49;68.22;99148.86;25123;1313;3051578;-63
2022/09/20 05:11:07;;;;;;;19.00;10.50;;;;;;;13.30;69.98;99142.38;25127;1313;3068963;-63
2022/09/20 05:13:56;;;;;;;26.40;10.70;;;;;;;13.17;70.58;99137.42;25122;1313;3048342;-64
2022/09/20 05:16:57;;;;;;;19.00;10.30;;;;;;;13.11;71.14;99129.98;25256;1313;3054519;-66
2022/09/20 05:20:03;;;;;;;15.00;7.20;;;;;;;13.07;71.14;99129.51;25196;1313;3055436;-64
2022/09/20 05:22:47;;;;;;;13.00;4.70;;;;;;;12.97;71.31;99130.34;25175;1313;3059219;-66
2022/09/20 05:25:55;;;;;;;5.60;2.20;;;;;;;12.93;71.95;99123.90;25159;1313;3049921;-63
2022/09/20 05:28:43;;;;;;;8.50;2.70;;;;;;;13.76;70.05;99115.31;25213;1313;3053051;-65
2022/09/20 05:31:24;;;;;;;13.90;4.60;;;;;;;14.18;68.75;99114.74;25175;1313;3055976;-65
2022/09/20 05:34:10;;;;;;;14.50;4.70;;;;;;;14.20;68.25;99115.08;25106;1313;3071290;-67
2022/09/20 05:37:06;;;;;;;12.80;4.60;;;;;;;14.10;68.47;99108.86;25158;1313;3049087;-65
2022/09/20 05:39:51;;;;;;;13.80;4.40;;;;;;;13.93;69.12;99112.16;25171;1313;3055468;-68
2022/09/20 05:42:53;;;;;;;9.40;3.60;;;;;;;13.75;69.89;99123.23;25206;1313;3051202;-67
2022/09/20 05:45:38;;;;;;;9.40;3.60;;;;;;;13.62;70.59;99123.23;25165;1313;3058917;-64
2022/09/20 05:48:36;;;;;;;12.80;4.10;;;;;;;13.55;70.90;99124.63;25204;1313;3052171;-66
2022/09/20 05:51:18;;;;;;;13.60;3.80;;;;;;;13.43;71.61;99132.05;25198;1313;3055346;-64
2022/09/20 05:54:02;;;;;;;11.50;4.00;;;;;;;13.40;71.96;99126.13;25179;1313;3054063;-66
2022/09/20 05:56:46;;;;;;;8.60;2.50;;;;;;;13.44;71.43;99126.35;25177;1313;3068214;-66
2022/09/20 05:59:24;;;;;;;5.60;1.70;;;;;;;14.09;70.49;99120.85;25188;1312;3049039;-64
2022/09/20 06:02:01;;;;;;;6.10;2.10;;;;;;;14.65;67.31;99110.21;25184;1313;3055615;-66
2022/09/20 06:05:21;;;;;;;5.10;1.70;;;;;;;14.66;66.95;99112.99;25158;1316;3052168;-66
2022/09/20 06:08:25;;;;;;;5.80;1.60;;;;;;;14.52;67.35;99110.38;25141;1313;3056889;-67
2022/09/20 06:11:13;;;;;;;3.50;1.50;;;;;;;14.23;68.77;99116.66;25168;1313;3048693;-66
2022/09/20 06:13:51;;;;;;;4.00;1.60;;;;;;;14.03;69.02;99120.33;25225;1313;3051587;-68
2022/09/20 06:16:55;;;;;;;3.20;1.40;;;;;;;13.87;69.82;99131.64;25225;1313;3051331;-66
2022/09/20 06:19:45;;;;;;;6.00;1.90;;;;;;;13.74;70.88;99130.55;25129;1316;3069230;-66
2022/09/20 06:22:33;;;;;;;3.30;1.60;;;;;;;13.65;71.33;99128.50;25185;1314;3053193;-63
2022/09/20 06:25:08;;;;;;;4.10;1.90;;;;;;;13.59;72.11;99124.71;25223;1313;3055402;-66
2022/09/20 06:27:41;;;;;;;6.00;1.30;;;;;;;13.63;71.83;99123.36;25235;1313;3055535;-65
2022/09/20 06:30:18;;;;;;;5.50;2.00;;;;;;;14.29;70.26;99112.05;25170;1313;3026279;-66
2022/09/20 06:33:00;;;;;;;6.80;2.00;;;;;;;14.96;67.69;99109.22;25130;1313;3048527;-65
2022/09/20 06:35:41;;;;;;;9.70;1.90;;;;;;;15.03;66.40;99111.46;25183;1316;3053034;-65
2022/09/20 06:41:43;;;;;;;4.10;1.40;;;;;;;14.81;67.40;99100.09;25174;1313;3068657;-68
2022/09/20 06:44:13;;;;;;;3.60;1.60;;;;;;;14.68;67.60;99101.33;25222;1313;3028225;-64
2022/09/20 06:46:42;;;;;;;2.90;1.30;;;;;;;14.55;67.93;99104.35;25296;1313;3026847;-67
2022/09/20 06:49:11;;;;;;;1.50;1.10;;;;;;;14.41;68.76;99106.38;25178;1313;3067652;-68
2022/09/20 06:51:40;;;;;;;4.90;2.10;;;;;;;14.32;68.57;99111.14;25175;1313;3026846;-67
2022/09/20 06:54:16;;;;;;;3.40;1.40;;;;;;;14.15;68.97;99113.42;25281;1313;3053767;-68
2022/09/20 06:56:45;;;;;;;3.40;1.50;;;;;;;14.11;68.86;99115.30;25287;1309;3068295;-72
2022/09/20 06:59:15;;;;;;;2.80;1.30;;;;;;;13.96;69.62;99117.34;25109;1318;3026953;-73
2022/09/20 07:01:44;;;;;;;4.60;1.70;;;;;;;13.87;69.80;99121.61;25132;1318;3026312;-70
2022/09/20 07:04:13;;;;;;;2.40;1.10;;;;;;;13.76;69.94;99117.52;25125;1319;3070240;-71
2022/09/20 07:06:43;;;;;;;2.60;1.40;;;;;;;13.73;69.72;99116.76;25146;1319;3027011;-71
2022/09/20 07:09:13;;;;;;;4.10;1.70;;;;;;;13.77;70.06;99114.48;25079;1318;3029736;-67
2022/09/20 07:11:45;;;;;;;1.90;0.90;;;;;;;13.85;70.23;99099.24;25064;1318;3026879;-69
2022/09/20 07:14:14;;;;;;;1.90;0.90;;;;;;;14.62;67.83;99096.35;25076;1318;3027356;-68
2022/09/20 07:16:44;;;;;;;2.10;1.10;;;;;;;15.26;64.77;99090.44;25065;1318;3055905;-70
2022/09/20 07:19:12;;;;;;;3.30;1.00;;;;;;;15.36;63.93;99083.80;25084;1318;3026346;-67
2022/09/20 07:21:41;;;;;;;1.80;1.00;;;;;;;15.29;64.05;99080.66;25066;1318;3048700;-68
2022/09/20 07:24:15;;;;;;;2.80;1.40;;;;;;;15.23;63.80;99078.17;25077;1318;3026561;-70
2022/09/20 07:26:58;;;;;;;3.30;1.30;;;;;;;15.23;63.62;99076.95;25079;1318;3026998;-70
2022/09/20 07:29:27;;;;;;;3.00;1.30;;;;;;;15.20;63.75;99071.75;25078;1318;3059628;-69
2022/09/20 07:31:56;;;;;;;4.20;1.40;;;;;;;15.20;63.64;99066.10;25018;1321;3026365;-70
2022/09/20 07:34:51;;;;;;;1.90;1.20;;;;;;;15.24;63.15;99065.52;25069;1318;3055239;-72
2022/09/20 07:37:20;;;;;;;4.90;1.30;;;;;;;15.29;62.86;99066.55;25132;1318;3026705;-68
2022/09/20 07:39:48;;;;;;;7.10;1.50;;;;;;;15.34;62.09;99059.28;25080;1318;3049657;-69
2022/09/20 07:42:17;;;;;;;3.30;1.30;;;;;;;15.40;62.03;99061.16;25119;1318;3028288;-73
2022/09/20 07:44:50;;;;;;;5.90;1.50;;;;;;;15.37;62.73;99058.11;25130;1318;3054426;-69
2022/09/20 07:47:20;;;;;;;5.30;1.20;;;;;;;15.38;62.52;99055.91;25081;1318;3027674;-68
2022/09/20 07:49:49;;;;;;;5.50;1.20;;;;;;;15.46;62.10;99059.61;25059;1321;3026465;-71
2022/09/20 07:52:44;;;;;;;4.50;1.20;;;;;;;15.49;62.15;99057.80;25103;1318;3055174;-70
2022/09/20 07:55:14;;;;;;;3.10;1.40;;;;;;;15.54;62.06;99057.14;25120;1318;3026734;-71
2022/09/20 07:57:44;;;;;;;2.50;1.20;;;;;;;15.60;62.01;99050.11;25062;1318;3026811;-67
2022/09/20 08:00:15;;;;;;;3.40;1.30;;;;;;;15.67;62.33;99046.17;25118;1317;3026851;-70
2022/09/20 08:02:45;;;;;;;5.90;1.70;;;;;;;15.80;62.45;99044.29;25059;1318;3026629;-70
2022/09/20 08:05:16;;;;;;;4.40;1.50;;;;;;;15.81;62.41;99037.89;25083;1318;3029239;-69
2022/09/20 08:07:45;;;;;;;4.80;1.20;;;;;;;15.76;62.22;99035.29;25108;1318;3026841;-70
2022/09/20 08:10:14;;;;;;;1.50;1.10;;;;;;;15.81;62.40;99028.17;25072;1318;3052282;-69
2022/09/20 08:12:44;;;;;;;3.70;1.40;;;;;;;15.99;62.05;99025.80;25077;1318;3026884;-71
2022/09/20 08:15:13;;;;;;;7.60;1.30;;;;;;;16.20;61.24;99022.38;25160;1318;3026957;-69
2022/09/20 08:17:46;;;;;;;5.50;1.40;;;;;;;16.26;61.03;99022.13;25193;1318;3051711;-68
2022/09/20 08:20:15;;;;;;;4.00;1.20;;;;;;;16.50;60.68;99017.33;25113;1318;3027530;-71
2022/09/20 08:22:45;;;;;;;8.10;1.70;;;;;;;16.64;60.26;99013.36;25367;1318;3027157;-67
2022/09/20 08:25:16;;;;;;;4.90;1.60;;;;;;;16.81;60.21;99008.94;25273;1318;3026233;-68
2022/09/20 08:27:52;;;;;;;2.50;1.10;;;;;;;16.95;60.27;99007.19;25119;1318;3028425;-71
2022/09/20 08:30:22;;;;;;;3.40;1.10;;;;;;;17.07;60.48;99010.84;25094;1318;3068739;-69
2022/09/20 08:32:52;;;;;;;2.80;1.20;;;;;;;17.15;59.83;99007.73;25209;1317;3028079;-70
2022/09/20 08:35:24;;;;;;;3.50;1.30;;;;;;;17.22;59.38;99002.65;25120;1319;3028175;-68
2022/09/20 08:37:54;;;;;;;2.30;1.10;;;;;;;17.27;59.14;99003.59;25127;1319;3030657;-67
2022/09/20 08:40:23;;;;;;;5.00;1.60;;;;;;;17.31;59.55;98998.06;25148;1319;3026040;-68
2022/09/20 08:42:53;;;;;;;2.20;1.10;;;;;;;17.23;59.75;99004.52;25102;1318;3027102;-68
2022/09/20 08:45:24;;;;;;;3.20;1.10;;;;;;;17.19;60.02;99010.55;25124;1318;3027741;-70
2022/09/20 08:47:56;;;;;;;9.90;1.60;;;;;;;17.31;60.37;99005.91;25233;1318;3026651;-72
2022/09/20 08:50:25;;;;;;;16.50;2.20;;;;;;;17.44;59.41;99004.48;25082;1322;3026428;-73
2022/09/20 08:52:56;;;;;;;14.70;1.90;;;;;;;17.57;59.25;99004.12;25093;1321;3028289;-70
2022/09/20 08:55:30;;;;;;;12.40;2.10;;;;;;;17.55;59.19;99001.12;25144;1319;3051692;-72
2022/09/20 08:58:01;;;;;;;6.20;1.70;;;;;;;17.60;58.72;99002.70;25319;1320;3068797;-71
2022/09/20 09:00:31;;;;;;;14.40;2.10;;;;;;;17.68;58.62;98998.27;25303;1321;3026622;-72
2022/09/20 09:03:06;;;;;;;14.10;2.70;;;;;;;17.69;59.21;98994.80;25406;1318;3051887;-69
2022/09/20 09:05:52;;;;;;;16.30;3.00;;;;;;;17.67;59.41;98988.90;25310;1318;3026572;-70
2022/09/20 09:08:33;;;;;;;13.00;2.40;;;;;;;17.65;59.86;98990.07;25260;1318;3056556;-69
2022/09/20 09:11:10;;;;;;;17.90;2.60;;;;;;;17.59;60.25;98989.86;25257;1318;3049780;-71
2022/09/20 09:14:46;;;;;;;27.00;3.10;;;;;;;17.63;59.52;98990.74;25211;1320;3053420;-69
2022/09/20 09:16:59;;;;;;;26.20;3.10;;;;;;;17.51;59.58;98990.38;25216;1319;3054148;-69
2022/09/20 09:19:30;;;;;;;33.40;3.50;;;;;;;17.52;59.62;98986.88;25199;1318;3026270;-69
2022/09/20 09:22:01;;;;;;;14.40;2.00;;;;;;;17.64;59.57;98991.52;25179;1318;3028361;-72
2022/09/20 09:24:30;;;;;;;7.40;2.10;;;;;;;17.64;59.79;98992.30;25185;1320;3027325;-70
2022/09/20 09:27:16;;;;;;;4.20;1.40;;;;;;;17.67;60.05;98989.46;25254;1318;3027742;-69
2022/09/20 09:29:49;;;;;;;6.50;1.60;;;;;;;17.73;59.53;98988.06;25213;1318;3049211;-70
2022/09/20 09:32:38;;;;;;;6.40;1.70;;;;;;;17.77;59.42;98995.08;25218;1318;3026523;-69
2022/09/20 09:35:29;;;;;;;3.70;1.40;;;;;;;17.78;59.44;98992.98;25222;1318;3055582;-70
2022/09/20 09:38:00;;;;;;;3.70;1.50;;;;;;;17.85;59.38;98995.20;25239;1318;3055060;-69
2022/09/20 09:40:30;;;;;;;7.70;1.60;;;;;;;17.77;59.68;98990.63;25262;1318;3026610;-70
2022/09/20 09:43:01;;;;;;;8.20;1.80;;;;;;;17.77;59.49;98982.98;25166;1318;3026203;-70
2022/09/20 09:45:35;;;;;;;6.60;1.60;;;;;;;17.76;59.85;98984.93;25157;1318;3026316;-69
2022/09/20 09:48:25;;;;;;;4.30;1.70;;;;;;;17.78;59.94;98982.41;25279;1318;3026693;-68
2022/09/20 09:51:17;;;;;;;3.80;1.70;;;;;;;17.83;60.47;98972.20;25142;1319;3049680;-70
2022/09/20 09:53:47;;;;;;;3.40;1.60;;;;;;;17.92;60.41;98966.13;25185;1321;3054885;-69
2022/09/20 09:56:29;;;;;;;6.50;2.00;;;;;;;18.05;60.76;98965.42;25122;1318;3026723;-69
2022/09/20 09:59:28;;;;;;;4.10;1.80;;;;;;;18.15;60.61;98962.08;25192;1318;3056465;-70
2022/09/20 10:02:09;;;;;;;4.00;1.90;;;;;;;18.34;60.26;98957.06;25158;1318;3050167;-72
2022/09/20 10:04:57;;;;;;;6.80;2.00;;;;;;;18.45;60.48;98958.55;25235;1318;3053064;-70
2022/09/20 10:07:58;;;;;;;3.50;1.80;;;;;;;18.56;60.40;98949.83;25323;1318;3051180;-70
2022/09/20 10:10:38;;;;;;;3.70;1.80;;;;;;;18.59;59.85;98955.38;25312;1318;3068623;-70
2022/09/20 10:13:21;;;;;;;3.50;1.80;;;;;;;18.56;60.36;98951.99;25337;1318;3049339;-71
2022/09/20 10:16:06;;;;;;;8.10;2.10;;;;;;;18.57;60.72;98953.13;25182;1318;3054911;-69
2022/09/20 10:18:48;;;;;;;4.60;2.20;;;;;;;18.53;61.14;98952.80;25156;1318;3053782;-70
2022/09/20 10:21:31;;;;;;;3.70;1.90;;;;;;;18.52;61.31;98940.00;25174;1318;3056806;-71
2022/09/20 10:24:21;;;;;;;5.50;2.00;;;;;;;18.50;61.38;98941.02;25119;1319;3049758;-71
2022/09/20 10:27:04;;;;;;;9.40;2.40;;;;;;;18.46;61.68;98942.89;25206;1318;3054570;-67
2022/09/20 10:29:38;;;;;;;17.20;3.30;;;;;;;18.32;62.14;98944.76;25120;1318;3054345;-69
2022/09/20 10:32:35;;;;;;;13.90;3.00;;;;;;;18.35;61.88;98942.69;25110;1318;3026628;-67
2022/09/20 10:35:13;;;;;;;10.00;3.10;;;;;;;18.42;61.31;98935.48;25259;1318;3049340;-67
2022/09/20 10:38:25;;;;;;;19.90;3.20;;;;;;;18.42;61.51;98931.55;25158;1318;3053579;-69
2022/09/20 10:44:57;;;;;;;10.40;2.30;;;;;;;18.34;62.69;98929.89;25236;1318;3059307;-71
2022/09/20 10:47:31;;;;;;;5.90;2.70;;;;;;;18.31;63.69;98927.03;25498;1317;3052935;-68
2022/09/20 10:50:12;;;;;;;6.30;2.00;;;;;;;18.26;63.39;98923.38;25566;1318;3051676;-68
2022/09/20 10:52:50;;;;;;;5.40;2.30;;;;;;;18.10;64.13;98918.65;25147;1318;3051713;-68
2022/09/20 10:55:23;;;;;;;6.40;2.00;;;;;;;18.02;64.44;98919.31;25163;1318;3068177;-67
2022/09/20 10:58:12;;;;;;;16.20;3.00;;;;;;;18.01;64.28;98915.89;25222;1318;3049484;-69
2022/09/20 11:00:53;;;;;;;8.20;2.50;;;;;;;18.01;64.45;98909.87;25129;1318;3052046;-68
2022/09/20 11:03:40;;;;;;;17.50;3.30;;;;;;;18.00;64.22;98911.54;25141;1318;3053052;-67
2022/09/20 11:06:18;;;;;;;23.90;3.90;;;;;;;17.93;64.53;98906.69;25186;1318;3058779;-70
2022/09/20 11:08:50;;;;;;;16.30;3.50;;;;;;;17.97;64.67;98909.71;25181;1318;3050154;-71
2022/09/20 11:11:25;;;;;;;22.10;3.90;;;;;;;17.91;64.65;98906.02;25143;1321;3026701;-70
2022/09/20 11:14:06;;;;;;;28.20;3.90;;;;;;;17.88;65.25;98896.18;25176;1318;3053920;-70
2022/09/20 11:16:43;;;;;;;28.00;6.50;;;;;;;17.88;65.17;98897.61;25209;1318;3068916;-71
2022/09/20 11:19:59;;;;;;;23.00;4.10;;;;;;;17.79;66.38;98905.02;25238;1318;3049396;-68
2022/09/20 11:22:47;;;;;;;22.50;4.80;;;;;;;17.70;66.80;98907.76;25007;1324;3053218;-68
2022/09/20 11:25:43;;;;;;;32.50;5.50;;;;;;;17.59;66.80;98914.87;24985;1324;3053240;-68
2022/09/20 11:28:19;;;;;;;36.80;10.50;;;;;;;17.48;67.54;98921.39;25146;1318;3057399;-69
2022/09/20 11:31:05;;;;;;;36.50;6.80;;;;;;;17.45;68.28;98923.66;25041;1318;3049773;-68
2022/09/20 11:33:55;;;;;;;19.50;3.60;;;;;;;17.51;68.38;98915.77;25095;1318;3053685;-68
2022/09/20 11:36:41;;;;;;;29.20;4.50;;;;;;;18.36;66.55;98910.66;25113;1318;3052085;-68
2022/09/20 11:39:14;;;;;;;20.10;3.90;;;;;;;18.97;64.66;98912.84;25130;1318;3069053;-68
2022/09/20 11:41:44;;;;;;;20.10;3.40;;;;;;;19.13;63.81;98911.58;25141;1318;3048757;-68
2022/09/20 11:44:15;;;;;;;10.40;3.10;;;;;;;19.14;63.53;98910.93;25075;1319;3026353;-67
2022/09/20 11:46:54;;;;;;;17.20;3.60;;;;;;;19.07;63.41;98907.02;25115;1319;3068252;-68
2022/09/20 11:49:45;;;;;;;8.40;3.50;;;;;;;19.01;63.43;98902.80;25165;1318;3049516;-67
2022/09/20 11:52:36;;;;;;;14.90;2.80;;;;;;;18.99;63.58;98901.77;25267;1318;3052710;-66
2022/09/20 11:55:20;;;;;;;7.20;2.70;;;;;;;18.92;63.48;98900.38;25098;1318;3052802;-66
2022/09/20 11:58:06;;;;;;;9.00;3.10;;;;;;;18.91;63.66;98900.13;25313;1318;3057486;-69
2022/09/20 12:00:40;;;;;;;11.00;3.00;;;;;;;18.92;63.18;98902.81;25045;1320;3049627;-69
2022/09/20 12:03:36;;;;;;;10.30;3.30;;;;;;;19.00;63.46;98903.14;25006;1318;3026846;-69
2022/09/20 12:06:25;;;;;;;10.70;3.40;;;;;;;19.08;63.34;98900.34;25119;1318;3051761;-68
2022/09/20 12:08:56;;;;;;;7.40;2.80;;;;;;;19.18;62.71;98901.83;25133;1318;3068166;-69
2022/09/20 12:11:29;;;;;;;9.50;2.80;;;;;;;19.17;62.70;98903.31;25055;1318;3026112;-68
2022/09/20 12:14:27;;;;;;;9.70;3.20;;;;;;;19.19;63.23;98903.55;25157;1318;3055271;-68
2022/09/20 12:16:56;;;;;;;12.50;2.70;;;;;;;19.20;63.68;98901.16;25086;1318;3027975;-67
2022/09/20 12:19:30;;;;;;;7.10;2.50;;;;;;;19.19;63.43;98899.03;25119;1317;3026867;-68
2022/09/20 12:21:59;;;;;;;15.30;3.60;;;;;;;19.15;64.02;98900.69;25119;1318;3050206;-69
2022/09/20 12:24:38;;;;;;;20.60;3.20;;;;;;;19.09;64.13;98899.17;25108;1318;3026597;-69
2022/09/20 12:27:26;;;;;;;11.00;3.10;;;;;;;19.08;64.42;98894.85;25111;1318;3051156;-70
2022/09/20 12:30:21;;;;;;;9.40;2.90;;;;;;;19.12;64.44;98888.90;25095;1317;3071256;-74